Toulouse, Kentucky
Current Conditions -  °F | °C
As of 7:53 PM on Wednesday 26 Nov 2014 (Local Time) from KJKL Reporting Station
Scattered Clouds Scattered Clouds  
Wind Chill: 40°   Ceiling: Unl
Heat Index: 40°   Visibility: 10mi
Dew Point: 27°   Wind: 0mph
Humidity: 60%   Direction: NA
Pressure: 29.99"   Gusts: NA
Location:  37.2537°N, 83.2991°W
Report Text: KJKL 270053Z AUTO 00000KT 10SM SCT110 04/M03 A2999 RMK AO2 SLP163 T00441028
Loading
Personal Weather Stations






























Interactive Weather Map New forecast layout! Learn more

10-Day Weather Forecast

Advertisements
Track Severe Weather on mobile